sensor_id;sensor_type;location;lat;lon;timestamp;P1;durP1;ratioP1;P2;durP2;ratioP2
16063;SDS011;8136;53.172;8.256;2023-12-07T00:02:11;18.17;;;12.83;;
16063;SDS011;8136;53.172;8.256;2023-12-07T00:04:38;18.67;;;12.73;;
16063;SDS011;8136;53.172;8.256;2023-12-07T00:07:05;18.10;;;12.57;;
16063;SDS011;8136;53.172;8.256;2023-12-07T00:09:33;16.20;;;12.40;;
16063;SDS011;8136;53.172;8.256;2023-12-07T00:12:00;18.80;;;12.23;;
16063;SDS011;8136;53.172;8.256;2023-12-07T00:14:27;19.73;;;13.17;;
16063;SDS011;8136;53.172;8.256;2023-12-07T00:16:54;17.00;;;11.80;;
16063;SDS011;8136;53.172;8.256;2023-12-07T00:19:22;17.67;;;12.53;;
16063;SDS011;8136;53.172;8.256;2023-12-07T00:21:49;16.50;;;12.13;;
16063;SDS011;8136;53.172;8.256;2023-12-07T00:24:16;20.33;;;13.17;;
16063;SDS011;8136;53.172;8.256;2023-12-07T00:26:44;16.57;;;12.03;;
16063;SDS011;8136;53.172;8.256;2023-12-07T00:29:11;19.30;;;13.33;;
16063;SDS011;8136;53.172;8.256;2023-12-07T00:31:38;18.23;;;12.20;;
16063;SDS011;8136;53.172;8.256;2023-12-07T00:34:04;18.83;;;12.57;;
16063;SDS011;8136;53.172;8.256;2023-12-07T00:36:31;19.43;;;13.87;;
16063;SDS011;8136;53.172;8.256;2023-12-07T00:38:58;20.37;;;12.67;;
16063;SDS011;8136;53.172;8.256;2023-12-07T00:41:25;19.27;;;13.10;;
16063;SDS011;8136;53.172;8.256;2023-12-07T00:43:54;19.53;;;13.50;;
16063;SDS011;8136;53.172;8.256;2023-12-07T00:46:21;16.37;;;12.03;;
16063;SDS011;8136;53.172;8.256;2023-12-07T00:48:48;15.17;;;12.00;;
16063;SDS011;8136;53.172;8.256;2023-12-07T00:51:15;18.13;;;12.83;;
16063;SDS011;8136;53.172;8.256;2023-12-07T00:53:42;19.33;;;12.80;;
16063;SDS011;8136;53.172;8.256;2023-12-07T00:56:09;18.60;;;12.77;;
16063;SDS011;8136;53.172;8.256;2023-12-07T00:58:36;16.10;;;11.73;;
16063;SDS011;8136;53.172;8.256;2023-12-07T01:01:05;18.63;;;12.30;;
16063;SDS011;8136;53.172;8.256;2023-12-07T01:03:32;18.57;;;12.17;;
16063;SDS011;8136;53.172;8.256;2023-12-07T01:06:00;19.23;;;13.30;;
16063;SDS011;8136;53.172;8.256;2023-12-07T01:08:27;17.10;;;12.00;;
16063;SDS011;8136;53.172;8.256;2023-12-07T01:10:54;19.87;;;12.10;;
16063;SDS011;8136;53.172;8.256;2023-12-07T01:13:21;15.37;;;12.17;;
16063;SDS011;8136;53.172;8.256;2023-12-07T01:15:48;18.27;;;12.57;;
16063;SDS011;8136;53.172;8.256;2023-12-07T01:18:17;19.13;;;12.97;;
16063;SDS011;8136;53.172;8.256;2023-12-07T01:20:43;19.83;;;12.03;;
16063;SDS011;8136;53.172;8.256;2023-12-07T01:23:10;18.03;;;12.43;;
16063;SDS011;8136;53.172;8.256;2023-12-07T01:25:37;18.57;;;12.37;;
16063;SDS011;8136;53.172;8.256;2023-12-07T01:28:04;19.07;;;12.30;;
16063;SDS011;8136;53.172;8.256;2023-12-07T01:30:31;18.07;;;12.17;;
16063;SDS011;8136;53.172;8.256;2023-12-07T01:32:58;17.73;;;11.43;;
16063;SDS011;8136;53.172;8.256;2023-12-07T01:35:26;20.37;;;12.17;;
16063;SDS011;8136;53.172;8.256;2023-12-07T01:37:53;19.43;;;13.03;;
16063;SDS011;8136;53.172;8.256;2023-12-07T01:40:20;13.77;;;10.03;;
16063;SDS011;8136;53.172;8.256;2023-12-07T01:42:50;21.07;;;11.90;;
16063;SDS011;8136;53.172;8.256;2023-12-07T01:45:19;14.40;;;10.97;;
16063;SDS011;8136;53.172;8.256;2023-12-07T01:47:46;19.07;;;12.07;;
16063;SDS011;8136;53.172;8.256;2023-12-07T01:50:14;18.27;;;11.63;;
16063;SDS011;8136;53.172;8.256;2023-12-07T01:52:44;21.73;;;13.00;;
16063;SDS011;8136;53.172;8.256;2023-12-07T01:55:13;19.50;;;12.03;;
16063;SDS011;8136;53.172;8.256;2023-12-07T01:57:41;21.00;;;11.83;;
16063;SDS011;8136;53.172;8.256;2023-12-07T02:00:11;17.20;;;11.20;;
16063;SDS011;8136;53.172;8.256;2023-12-07T02:02:39;15.73;;;10.47;;
16063;SDS011;8136;53.172;8.256;2023-12-07T02:05:07;17.97;;;11.57;;
16063;SDS011;8136;53.172;8.256;2023-12-07T02:07:34;18.87;;;11.63;;
16063;SDS011;8136;53.172;8.256;2023-12-07T02:10:03;15.50;;;10.60;;
16063;SDS011;8136;53.172;8.256;2023-12-07T02:12:31;16.03;;;10.77;;
16063;SDS011;8136;53.172;8.256;2023-12-07T02:14:58;17.77;;;12.60;;
16063;SDS011;8136;53.172;8.256;2023-12-07T02:17:28;14.20;;;10.90;;
16063;SDS011;8136;53.172;8.256;2023-12-07T02:20:01;16.33;;;11.87;;
16063;SDS011;8136;53.172;8.256;2023-12-07T02:22:36;16.13;;;11.73;;
16063;SDS011;8136;53.172;8.256;2023-12-07T02:25:08;14.07;;;10.53;;
16063;SDS011;8136;53.172;8.256;2023-12-07T02:27:38;17.17;;;10.87;;
16063;SDS011;8136;53.172;8.256;2023-12-07T02:30:06;17.60;;;11.13;;
16063;SDS011;8136;53.172;8.256;2023-12-07T02:32:34;21.40;;;11.20;;
16063;SDS011;8136;53.172;8.256;2023-12-07T02:35:01;17.60;;;11.83;;
16063;SDS011;8136;53.172;8.256;2023-12-07T02:37:29;16.37;;;11.30;;
16063;SDS011;8136;53.172;8.256;2023-12-07T02:40:02;18.77;;;12.23;;
16063;SDS011;8136;53.172;8.256;2023-12-07T02:42:31;14.40;;;11.03;;
16063;SDS011;8136;53.172;8.256;2023-12-07T02:45:01;15.57;;;11.17;;
16063;SDS011;8136;53.172;8.256;2023-12-07T02:47:29;15.77;;;10.73;;
16063;SDS011;8136;53.172;8.256;2023-12-07T02:49:56;16.10;;;12.23;;
16063;SDS011;8136;53.172;8.256;2023-12-07T02:52:23;15.20;;;10.87;;
16063;SDS011;8136;53.172;8.256;2023-12-07T02:54:50;16.93;;;11.33;;
16063;SDS011;8136;53.172;8.256;2023-12-07T02:57:17;15.87;;;11.57;;
16063;SDS011;8136;53.172;8.256;2023-12-07T02:59:44;18.90;;;11.40;;
16063;SDS011;8136;53.172;8.256;2023-12-07T03:02:12;14.70;;;10.33;;
16063;SDS011;8136;53.172;8.256;2023-12-07T03:04:39;17.47;;;11.33;;
16063;SDS011;8136;53.172;8.256;2023-12-07T03:07:06;14.00;;;10.47;;
16063;SDS011;8136;53.172;8.256;2023-12-07T03:09:33;20.73;;;11.37;;
16063;SDS011;8136;53.172;8.256;2023-12-07T03:11:59;15.73;;;9.87;;
16063;SDS011;8136;53.172;8.256;2023-12-07T03:16:54;14.87;;;10.23;;
16063;SDS011;8136;53.172;8.256;2023-12-07T03:19:28;14.17;;;9.97;;
16063;SDS011;8136;53.172;8.256;2023-12-07T03:21:58;16.90;;;11.67;;
16063;SDS011;8136;53.172;8.256;2023-12-07T03:24:25;12.53;;;9.93;;
16063;SDS011;8136;53.172;8.256;2023-12-07T03:26:52;16.20;;;10.50;;
16063;SDS011;8136;53.172;8.256;2023-12-07T03:29:19;17.17;;;11.20;;
16063;SDS011;8136;53.172;8.256;2023-12-07T03:31:46;13.63;;;9.47;;
16063;SDS011;8136;53.172;8.256;2023-12-07T03:34:12;16.27;;;9.83;;
16063;SDS011;8136;53.172;8.256;2023-12-07T03:36:42;14.97;;;10.07;;
16063;SDS011;8136;53.172;8.256;2023-12-07T03:39:11;15.17;;;9.47;;
16063;SDS011;8136;53.172;8.256;2023-12-07T03:41:38;14.93;;;10.97;;
16063;SDS011;8136;53.172;8.256;2023-12-07T03:44:07;16.00;;;10.60;;
16063;SDS011;8136;53.172;8.256;2023-12-07T03:46:36;19.13;;;10.60;;
16063;SDS011;8136;53.172;8.256;2023-12-07T03:49:03;17.10;;;10.27;;
16063;SDS011;8136;53.172;8.256;2023-12-07T03:51:30;16.03;;;11.13;;
16063;SDS011;8136;53.172;8.256;2023-12-07T03:54:03;15.47;;;10.10;;
16063;SDS011;8136;53.172;8.256;2023-12-07T03:56:31;18.47;;;11.13;;
16063;SDS011;8136;53.172;8.256;2023-12-07T03:58:59;14.00;;;9.70;;
16063;SDS011;8136;53.172;8.256;2023-12-07T04:01:26;13.37;;;9.83;;
16063;SDS011;8136;53.172;8.256;2023-12-07T04:03:54;13.67;;;10.37;;
16063;SDS011;8136;53.172;8.256;2023-12-07T04:06:22;17.67;;;10.77;;
16063;SDS011;8136;53.172;8.256;2023-12-07T04:08:50;16.53;;;10.77;;
16063;SDS011;8136;53.172;8.256;2023-12-07T04:11:18;20.20;;;11.57;;
16063;SDS011;8136;53.172;8.256;2023-12-07T04:13:45;15.93;;;10.63;;
16063;SDS011;8136;53.172;8.256;2023-12-07T04:16:12;15.33;;;10.43;;
16063;SDS011;8136;53.172;8.256;2023-12-07T04:18:39;13.70;;;9.57;;
16063;SDS011;8136;53.172;8.256;2023-12-07T04:21:06;15.70;;;10.37;;
16063;SDS011;8136;53.172;8.256;2023-12-07T04:23:33;15.90;;;10.00;;
16063;SDS011;8136;53.172;8.256;2023-12-07T04:26:00;14.37;;;9.60;;
16063;SDS011;8136;53.172;8.256;2023-12-07T04:28:28;17.23;;;11.20;;
16063;SDS011;8136;53.172;8.256;2023-12-07T04:30:55;15.30;;;10.13;;
16063;SDS011;8136;53.172;8.256;2023-12-07T04:33:22;15.57;;;10.20;;
16063;SDS011;8136;53.172;8.256;2023-12-07T04:35:49;14.77;;;10.33;;
16063;SDS011;8136;53.172;8.256;2023-12-07T04:38:25;14.70;;;9.70;;
16063;SDS011;8136;53.172;8.256;2023-12-07T04:40:52;20.23;;;11.17;;
16063;SDS011;8136;53.172;8.256;2023-12-07T04:43:19;16.40;;;9.83;;
16063;SDS011;8136;53.172;8.256;2023-12-07T04:45:47;15.87;;;9.93;;
16063;SDS011;8136;53.172;8.256;2023-12-07T04:48:14;16.07;;;9.97;;
16063;SDS011;8136;53.172;8.256;2023-12-07T04:50:47;15.67;;;10.37;;
16063;SDS011;8136;53.172;8.256;2023-12-07T04:53:22;16.13;;;10.30;;
16063;SDS011;8136;53.172;8.256;2023-12-07T04:55:50;13.83;;;9.60;;
16063;SDS011;8136;53.172;8.256;2023-12-07T04:58:17;13.53;;;10.13;;
16063;SDS011;8136;53.172;8.256;2023-12-07T05:00:43;15.93;;;10.20;;
16063;SDS011;8136;53.172;8.256;2023-12-07T05:03:12;13.13;;;10.17;;
16063;SDS011;8136;53.172;8.256;2023-12-07T05:05:41;16.33;;;10.63;;
16063;SDS011;8136;53.172;8.256;2023-12-07T05:08:17;15.13;;;10.30;;
16063;SDS011;8136;53.172;8.256;2023-12-07T05:10:44;14.20;;;10.13;;
16063;SDS011;8136;53.172;8.256;2023-12-07T05:13:11;17.07;;;10.97;;
16063;SDS011;8136;53.172;8.256;2023-12-07T05:15:38;17.20;;;10.17;;
16063;SDS011;8136;53.172;8.256;2023-12-07T05:18:04;16.83;;;10.73;;
16063;SDS011;8136;53.172;8.256;2023-12-07T05:20:33;14.20;;;9.50;;
16063;SDS011;8136;53.172;8.256;2023-12-07T05:23:01;16.67;;;10.20;;
16063;SDS011;8136;53.172;8.256;2023-12-07T05:25:28;14.57;;;10.20;;
16063;SDS011;8136;53.172;8.256;2023-12-07T05:27:58;17.37;;;10.20;;
16063;SDS011;8136;53.172;8.256;2023-12-07T05:30:25;19.40;;;10.03;;
16063;SDS011;8136;53.172;8.256;2023-12-07T05:32:55;12.90;;;9.73;;
16063;SDS011;8136;53.172;8.256;2023-12-07T05:35:37;14.73;;;10.00;;
16063;SDS011;8136;53.172;8.256;2023-12-07T05:38:03;14.30;;;9.77;;
16063;SDS011;8136;53.172;8.256;2023-12-07T05:40:30;13.83;;;10.60;;
16063;SDS011;8136;53.172;8.256;2023-12-07T05:42:58;20.73;;;10.60;;
16063;SDS011;8136;53.172;8.256;2023-12-07T05:45:26;14.80;;;10.20;;
16063;SDS011;8136;53.172;8.256;2023-12-07T05:47:52;14.47;;;10.00;;
16063;SDS011;8136;53.172;8.256;2023-12-07T05:50:28;17.70;;;10.33;;
16063;SDS011;8136;53.172;8.256;2023-12-07T05:52:56;14.60;;;10.00;;
16063;SDS011;8136;53.172;8.256;2023-12-07T05:55:24;15.77;;;10.47;;
16063;SDS011;8136;53.172;8.256;2023-12-07T05:57:51;15.17;;;9.80;;
16063;SDS011;8136;53.172;8.256;2023-12-07T06:00:26;13.70;;;9.63;;
16063;SDS011;8136;53.172;8.256;2023-12-07T06:02:53;17.07;;;11.33;;
16063;SDS011;8136;53.172;8.256;2023-12-07T06:05:20;13.73;;;9.20;;
16063;SDS011;8136;53.172;8.256;2023-12-07T06:07:47;17.03;;;10.33;;
16063;SDS011;8136;53.172;8.256;2023-12-07T06:10:15;14.67;;;10.17;;
16063;SDS011;8136;53.172;8.256;2023-12-07T06:12:42;14.10;;;9.50;;
16063;SDS011;8136;53.172;8.256;2023-12-07T06:15:09;14.70;;;9.87;;
16063;SDS011;8136;53.172;8.256;2023-12-07T06:17:36;15.57;;;9.70;;
16063;SDS011;8136;53.172;8.256;2023-12-07T06:20:03;15.27;;;9.70;;
16063;SDS011;8136;53.172;8.256;2023-12-07T06:22:31;15.17;;;9.57;;
16063;SDS011;8136;53.172;8.256;2023-12-07T06:24:58;17.17;;;10.27;;
16063;SDS011;8136;53.172;8.256;2023-12-07T06:27:29;14.37;;;10.00;;
16063;SDS011;8136;53.172;8.256;2023-12-07T06:29:55;15.30;;;10.33;;
16063;SDS011;8136;53.172;8.256;2023-12-07T06:32:22;14.03;;;8.67;;
16063;SDS011;8136;53.172;8.256;2023-12-07T06:34:50;14.07;;;9.63;;
16063;SDS011;8136;53.172;8.256;2023-12-07T06:37:19;15.70;;;9.83;;
16063;SDS011;8136;53.172;8.256;2023-12-07T06:39:46;17.03;;;10.07;;
16063;SDS011;8136;53.172;8.256;2023-12-07T06:42:14;14.27;;;9.63;;
16063;SDS011;8136;53.172;8.256;2023-12-07T06:44:47;17.57;;;10.40;;
16063;SDS011;8136;53.172;8.256;2023-12-07T06:47:15;15.80;;;9.23;;
16063;SDS011;8136;53.172;8.256;2023-12-07T06:49:42;15.30;;;9.73;;
16063;SDS011;8136;53.172;8.256;2023-12-07T06:52:11;16.77;;;10.43;;
16063;SDS011;8136;53.172;8.256;2023-12-07T06:54:38;13.87;;;9.80;;
16063;SDS011;8136;53.172;8.256;2023-12-07T06:57:05;13.43;;;9.77;;
16063;SDS011;8136;53.172;8.256;2023-12-07T06:59:32;16.20;;;10.53;;
16063;SDS011;8136;53.172;8.256;2023-12-07T07:02:00;13.27;;;9.80;;
16063;SDS011;8136;53.172;8.256;2023-12-07T07:04:27;13.47;;;9.87;;
16063;SDS011;8136;53.172;8.256;2023-12-07T07:06:55;17.47;;;10.53;;
16063;SDS011;8136;53.172;8.256;2023-12-07T07:09:22;14.63;;;10.47;;
16063;SDS011;8136;53.172;8.256;2023-12-07T07:11:50;14.33;;;10.10;;
16063;SDS011;8136;53.172;8.256;2023-12-07T07:14:18;17.10;;;10.57;;
16063;SDS011;8136;53.172;8.256;2023-12-07T07:16:55;14.70;;;9.57;;
16063;SDS011;8136;53.172;8.256;2023-12-07T07:19:41;13.10;;;9.13;;
16063;SDS011;8136;53.172;8.256;2023-12-07T07:22:11;13.63;;;9.03;;
16063;SDS011;8136;53.172;8.256;2023-12-07T07:24:42;14.23;;;9.93;;
16063;SDS011;8136;53.172;8.256;2023-12-07T07:27:08;13.27;;;8.97;;
16063;SDS011;8136;53.172;8.256;2023-12-07T07:29:38;15.43;;;9.90;;
16063;SDS011;8136;53.172;8.256;2023-12-07T07:32:05;13.73;;;9.40;;
16063;SDS011;8136;53.172;8.256;2023-12-07T07:34:35;14.57;;;8.57;;
16063;SDS011;8136;53.172;8.256;2023-12-07T07:37:04;15.87;;;9.87;;
16063;SDS011;8136;53.172;8.256;2023-12-07T07:39:34;14.03;;;9.97;;
16063;SDS011;8136;53.172;8.256;2023-12-07T07:42:00;18.83;;;10.47;;
16063;SDS011;8136;53.172;8.256;2023-12-07T07:44:27;17.17;;;10.80;;
16063;SDS011;8136;53.172;8.256;2023-12-07T07:46:59;13.43;;;9.33;;
16063;SDS011;8136;53.172;8.256;2023-12-07T07:49:26;13.23;;;9.87;;
16063;SDS011;8136;53.172;8.256;2023-12-07T07:51:53;13.73;;;9.70;;
16063;SDS011;8136;53.172;8.256;2023-12-07T07:54:24;15.63;;;9.97;;
16063;SDS011;8136;53.172;8.256;2023-12-07T07:56:52;16.17;;;9.93;;
16063;SDS011;8136;53.172;8.256;2023-12-07T07:59:27;14.13;;;9.87;;
16063;SDS011;8136;53.172;8.256;2023-12-07T08:01:57;17.13;;;10.70;;
16063;SDS011;8136;53.172;8.256;2023-12-07T08:04:38;12.77;;;9.20;;
16063;SDS011;8136;53.172;8.256;2023-12-07T08:07:08;16.43;;;9.27;;
16063;SDS011;8136;53.172;8.256;2023-12-07T08:09:39;15.87;;;10.77;;
16063;SDS011;8136;53.172;8.256;2023-12-07T08:12:06;18.23;;;10.53;;
16063;SDS011;8136;53.172;8.256;2023-12-07T08:14:47;13.87;;;10.10;;
16063;SDS011;8136;53.172;8.256;2023-12-07T08:17:17;15.50;;;10.07;;
16063;SDS011;8136;53.172;8.256;2023-12-07T08:19:44;16.70;;;9.80;;
16063;SDS011;8136;53.172;8.256;2023-12-07T08:22:15;14.77;;;9.47;;
16063;SDS011;8136;53.172;8.256;2023-12-07T08:24:49;15.33;;;9.87;;
16063;SDS011;8136;53.172;8.256;2023-12-07T08:27:21;18.23;;;10.00;;
16063;SDS011;8136;53.172;8.256;2023-12-07T08:29:48;18.00;;;10.10;;
16063;SDS011;8136;53.172;8.256;2023-12-07T08:32:18;14.87;;;10.60;;
16063;SDS011;8136;53.172;8.256;2023-12-07T08:34:48;14.77;;;10.00;;
16063;SDS011;8136;53.172;8.256;2023-12-07T08:37:18;16.47;;;9.80;;
16063;SDS011;8136;53.172;8.256;2023-12-07T08:39:45;16.20;;;10.83;;
16063;SDS011;8136;53.172;8.256;2023-12-07T08:42:20;15.03;;;9.93;;
16063;SDS011;8136;53.172;8.256;2023-12-07T08:44:49;21.60;;;10.90;;
16063;SDS011;8136;53.172;8.256;2023-12-07T08:47:16;19.60;;;11.33;;
16063;SDS011;8136;53.172;8.256;2023-12-07T08:49:48;14.07;;;9.37;;
16063;SDS011;8136;53.172;8.256;2023-12-07T08:52:20;15.17;;;10.47;;
16063;SDS011;8136;53.172;8.256;2023-12-07T08:54:54;15.10;;;9.43;;
16063;SDS011;8136;53.172;8.256;2023-12-07T08:57:27;14.40;;;9.00;;
16063;SDS011;8136;53.172;8.256;2023-12-07T08:59:58;13.37;;;9.13;;
16063;SDS011;8136;53.172;8.256;2023-12-07T09:02:28;16.17;;;9.43;;
16063;SDS011;8136;53.172;8.256;2023-12-07T09:04:58;15.77;;;10.77;;
16063;SDS011;8136;53.172;8.256;2023-12-07T09:07:28;16.33;;;9.90;;
16063;SDS011;8136;53.172;8.256;2023-12-07T09:09:55;16.63;;;11.47;;
16063;SDS011;8136;53.172;8.256;2023-12-07T09:12:26;16.50;;;10.47;;
16063;SDS011;8136;53.172;8.256;2023-12-07T09:32:59;12.97;;;8.53;;
16063;SDS011;8136;53.172;8.256;2023-12-07T09:35:27;13.57;;;9.80;;
16063;SDS011;8136;53.172;8.256;2023-12-07T09:37:59;16.13;;;9.70;;
16063;SDS011;8136;53.172;8.256;2023-12-07T09:40:29;12.77;;;9.13;;
16063;SDS011;8136;53.172;8.256;2023-12-07T09:42:58;17.33;;;9.67;;
16063;SDS011;8136;53.172;8.256;2023-12-07T09:45:28;12.63;;;9.13;;
16063;SDS011;8136;53.172;8.256;2023-12-07T09:47:56;13.47;;;9.20;;
16063;SDS011;8136;53.172;8.256;2023-12-07T09:50:25;14.47;;;8.93;;
16063;SDS011;8136;53.172;8.256;2023-12-07T09:52:54;14.67;;;9.60;;
16063;SDS011;8136;53.172;8.256;2023-12-07T09:55:22;14.80;;;9.70;;
16063;SDS011;8136;53.172;8.256;2023-12-07T09:57:50;16.67;;;10.40;;
16063;SDS011;8136;53.172;8.256;2023-12-07T10:00:22;16.20;;;9.80;;
16063;SDS011;8136;53.172;8.256;2023-12-07T10:02:54;16.37;;;10.20;;
16063;SDS011;8136;53.172;8.256;2023-12-07T10:05:20;13.23;;;9.87;;
16063;SDS011;8136;53.172;8.256;2023-12-07T10:07:49;15.80;;;10.40;;
16063;SDS011;8136;53.172;8.256;2023-12-07T10:10:17;14.33;;;10.27;;
16063;SDS011;8136;53.172;8.256;2023-12-07T10:12:48;13.50;;;9.83;;
16063;SDS011;8136;53.172;8.256;2023-12-07T10:15:18;17.03;;;10.23;;
16063;SDS011;8136;53.172;8.256;2023-12-07T10:17:46;17.00;;;10.07;;
16063;SDS011;8136;53.172;8.256;2023-12-07T10:20:15;16.27;;;10.53;;
16063;SDS011;8136;53.172;8.256;2023-12-07T10:22:43;14.97;;;10.57;;
16063;SDS011;8136;53.172;8.256;2023-12-07T10:25:29;16.57;;;10.13;;
16063;SDS011;8136;53.172;8.256;2023-12-07T10:27:59;14.07;;;10.30;;
16063;SDS011;8136;53.172;8.256;2023-12-07T10:30:31;14.23;;;10.13;;
16063;SDS011;8136;53.172;8.256;2023-12-07T10:33:09;15.63;;;10.10;;
16063;SDS011;8136;53.172;8.256;2023-12-07T10:35:42;14.03;;;10.70;;
16063;SDS011;8136;53.172;8.256;2023-12-07T10:38:10;17.10;;;10.30;;
16063;SDS011;8136;53.172;8.256;2023-12-07T10:40:39;16.10;;;10.03;;
16063;SDS011;8136;53.172;8.256;2023-12-07T10:43:09;16.30;;;10.47;;
16063;SDS011;8136;53.172;8.256;2023-12-07T10:45:38;15.30;;;10.53;;
16063;SDS011;8136;53.172;8.256;2023-12-07T10:48:08;16.10;;;10.23;;
16063;SDS011;8136;53.172;8.256;2023-12-07T10:50:36;15.23;;;11.00;;
16063;SDS011;8136;53.172;8.256;2023-12-07T10:53:13;14.00;;;9.83;;
16063;SDS011;8136;53.172;8.256;2023-12-07T10:55:52;14.00;;;9.73;;
16063;SDS011;8136;53.172;8.256;2023-12-07T10:58:25;14.47;;;9.93;;
16063;SDS011;8136;53.172;8.256;2023-12-07T11:00:53;16.10;;;10.03;;
16063;SDS011;8136;53.172;8.256;2023-12-07T11:03:24;15.83;;;9.60;;
16063;SDS011;8136;53.172;8.256;2023-12-07T11:05:52;15.03;;;10.43;;
16063;SDS011;8136;53.172;8.256;2023-12-07T11:08:23;19.30;;;10.67;;
16063;SDS011;8136;53.172;8.256;2023-12-07T11:11:00;12.53;;;9.27;;
16063;SDS011;8136;53.172;8.256;2023-12-07T11:13:35;14.90;;;9.90;;
16063;SDS011;8136;53.172;8.256;2023-12-07T11:16:03;16.73;;;10.83;;
16063;SDS011;8136;53.172;8.256;2023-12-07T11:18:30;14.70;;;10.20;;
16063;SDS011;8136;53.172;8.256;2023-12-07T11:21:00;14.67;;;9.97;;
16063;SDS011;8136;53.172;8.256;2023-12-07T11:23:30;15.57;;;11.10;;
16063;SDS011;8136;53.172;8.256;2023-12-07T11:25:59;15.13;;;9.73;;
16063;SDS011;8136;53.172;8.256;2023-12-07T11:28:38;16.03;;;10.90;;
16063;SDS011;8136;53.172;8.256;2023-12-07T11:31:06;12.93;;;9.47;;
16063;SDS011;8136;53.172;8.256;2023-12-07T11:33:33;15.40;;;10.67;;
16063;SDS011;8136;53.172;8.256;2023-12-07T11:36:04;14.80;;;9.67;;
16063;SDS011;8136;53.172;8.256;2023-12-07T11:38:33;15.70;;;9.87;;
16063;SDS011;8136;53.172;8.256;2023-12-07T11:41:03;14.43;;;9.63;;
16063;SDS011;8136;53.172;8.256;2023-12-07T11:43:36;17.13;;;9.93;;
16063;SDS011;8136;53.172;8.256;2023-12-07T11:46:11;15.27;;;9.27;;
16063;SDS011;8136;53.172;8.256;2023-12-07T11:48:45;15.57;;;9.27;;
16063;SDS011;8136;53.172;8.256;2023-12-07T11:51:15;17.03;;;9.70;;
16063;SDS011;8136;53.172;8.256;2023-12-07T11:53:43;17.33;;;10.67;;
16063;SDS011;8136;53.172;8.256;2023-12-07T11:56:10;14.30;;;8.80;;
16063;SDS011;8136;53.172;8.256;2023-12-07T11:58:38;13.33;;;10.40;;
16063;SDS011;8136;53.172;8.256;2023-12-07T12:01:05;18.77;;;11.10;;
16063;SDS011;8136;53.172;8.256;2023-12-07T12:03:35;14.90;;;10.40;;
16063;SDS011;8136;53.172;8.256;2023-12-07T12:06:35;15.73;;;9.73;;
16063;SDS011;8136;53.172;8.256;2023-12-07T12:09:07;15.83;;;9.60;;
16063;SDS011;8136;53.172;8.256;2023-12-07T12:11:35;14.87;;;10.43;;
16063;SDS011;8136;53.172;8.256;2023-12-07T12:14:12;15.27;;;10.70;;
16063;SDS011;8136;53.172;8.256;2023-12-07T12:16:45;17.47;;;10.40;;
16063;SDS011;8136;53.172;8.256;2023-12-07T12:19:15;14.07;;;10.83;;
16063;SDS011;8136;53.172;8.256;2023-12-07T12:21:42;16.07;;;10.20;;
16063;SDS011;8136;53.172;8.256;2023-12-07T12:24:13;15.50;;;10.57;;
16063;SDS011;8136;53.172;8.256;2023-12-07T12:26:43;13.30;;;9.67;;
16063;SDS011;8136;53.172;8.256;2023-12-07T12:29:12;14.50;;;9.90;;
16063;SDS011;8136;53.172;8.256;2023-12-07T12:31:40;15.43;;;10.23;;
16063;SDS011;8136;53.172;8.256;2023-12-07T12:37:09;18.63;;;10.37;;
16063;SDS011;8136;53.172;8.256;2023-12-07T12:39:39;17.83;;;10.33;;
16063;SDS011;8136;53.172;8.256;2023-12-07T12:42:07;15.50;;;10.17;;
16063;SDS011;8136;53.172;8.256;2023-12-07T12:44:36;16.73;;;10.90;;
16063;SDS011;8136;53.172;8.256;2023-12-07T12:47:04;14.00;;;10.10;;
16063;SDS011;8136;53.172;8.256;2023-12-07T12:49:36;14.17;;;10.13;;
16063;SDS011;8136;53.172;8.256;2023-12-07T12:52:04;15.53;;;10.60;;
16063;SDS011;8136;53.172;8.256;2023-12-07T12:54:39;14.23;;;10.07;;
16063;SDS011;8136;53.172;8.256;2023-12-07T13:00:18;19.20;;;10.73;;
16063;SDS011;8136;53.172;8.256;2023-12-07T13:02:46;16.47;;;11.13;;
16063;SDS011;8136;53.172;8.256;2023-12-07T13:05:14;15.93;;;10.87;;
16063;SDS011;8136;53.172;8.256;2023-12-07T13:07:43;16.97;;;11.03;;
16063;SDS011;8136;53.172;8.256;2023-12-07T13:10:11;15.50;;;10.83;;
16063;SDS011;8136;53.172;8.256;2023-12-07T13:12:38;16.03;;;10.50;;
16063;SDS011;8136;53.172;8.256;2023-12-07T13:15:05;18.97;;;11.47;;
16063;SDS011;8136;53.172;8.256;2023-12-07T13:17:33;15.67;;;10.33;;
16063;SDS011;8136;53.172;8.256;2023-12-07T13:20:00;19.00;;;11.27;;
16063;SDS011;8136;53.172;8.256;2023-12-07T13:22:28;16.70;;;11.00;;
16063;SDS011;8136;53.172;8.256;2023-12-07T13:24:55;18.47;;;11.47;;
16063;SDS011;8136;53.172;8.256;2023-12-07T13:27:24;16.00;;;11.60;;
16063;SDS011;8136;53.172;8.256;2023-12-07T13:29:50;16.77;;;10.77;;
16063;SDS011;8136;53.172;8.256;2023-12-07T13:32:17;18.60;;;11.93;;
16063;SDS011;8136;53.172;8.256;2023-12-07T13:34:44;16.97;;;11.63;;
16063;SDS011;8136;53.172;8.256;2023-12-07T13:37:11;15.60;;;10.13;;
16063;SDS011;8136;53.172;8.256;2023-12-07T13:39:38;16.47;;;9.87;;
16063;SDS011;8136;53.172;8.256;2023-12-07T13:42:05;14.83;;;11.00;;
16063;SDS011;8136;53.172;8.256;2023-12-07T13:44:35;16.33;;;11.03;;
16063;SDS011;8136;53.172;8.256;2023-12-07T13:47:02;16.23;;;11.17;;
16063;SDS011;8136;53.172;8.256;2023-12-07T13:49:29;16.50;;;11.37;;
16063;SDS011;8136;53.172;8.256;2023-12-07T13:51:56;16.33;;;11.60;;
16063;SDS011;8136;53.172;8.256;2023-12-07T13:54:25;19.83;;;13.00;;
16063;SDS011;8136;53.172;8.256;2023-12-07T13:56:52;18.47;;;12.37;;
16063;SDS011;8136;53.172;8.256;2023-12-07T13:59:19;17.77;;;12.73;;
16063;SDS011;8136;53.172;8.256;2023-12-07T14:01:49;18.90;;;12.10;;
16063;SDS011;8136;53.172;8.256;2023-12-07T14:04:15;18.97;;;12.10;;
16063;SDS011;8136;53.172;8.256;2023-12-07T14:06:44;18.10;;;12.47;;
16063;SDS011;8136;53.172;8.256;2023-12-07T14:09:23;21.77;;;12.57;;
16063;SDS011;8136;53.172;8.256;2023-12-07T14:11:56;22.63;;;14.60;;
16063;SDS011;8136;53.172;8.256;2023-12-07T14:14:24;19.07;;;12.60;;
16063;SDS011;8136;53.172;8.256;2023-12-07T14:16:55;22.53;;;13.47;;
16063;SDS011;8136;53.172;8.256;2023-12-07T14:19:26;25.27;;;14.60;;
16063;SDS011;8136;53.172;8.256;2023-12-07T14:21:53;22.93;;;13.67;;
16063;SDS011;8136;53.172;8.256;2023-12-07T14:24:21;21.00;;;14.03;;
16063;SDS011;8136;53.172;8.256;2023-12-07T14:27:04;19.50;;;12.97;;
16063;SDS011;8136;53.172;8.256;2023-12-07T14:29:31;20.50;;;13.57;;
16063;SDS011;8136;53.172;8.256;2023-12-07T14:32:00;23.80;;;14.00;;
16063;SDS011;8136;53.172;8.256;2023-12-07T14:34:29;18.33;;;12.83;;
16063;SDS011;8136;53.172;8.256;2023-12-07T14:36:56;18.70;;;12.77;;
16063;SDS011;8136;53.172;8.256;2023-12-07T15:30:50;52.70;;;25.03;;
16063;SDS011;8136;53.172;8.256;2023-12-07T15:33:37;52.53;;;28.67;;
16063;SDS011;8136;53.172;8.256;2023-12-07T15:38:52;48.67;;;24.50;;
16063;SDS011;8136;53.172;8.256;2023-12-07T15:41:21;44.10;;;23.10;;
16063;SDS011;8136;53.172;8.256;2023-12-07T15:43:48;44.50;;;23.43;;
16063;SDS011;8136;53.172;8.256;2023-12-07T15:46:17;48.97;;;23.67;;
16063;SDS011;8136;53.172;8.256;2023-12-07T15:48:44;45.53;;;21.27;;
16063;SDS011;8136;53.172;8.256;2023-12-07T15:51:10;44.93;;;20.80;;
16063;SDS011;8136;53.172;8.256;2023-12-07T15:53:39;76.53;;;22.40;;
16063;SDS011;8136;53.172;8.256;2023-12-07T15:56:07;43.47;;;20.73;;
16063;SDS011;8136;53.172;8.256;2023-12-07T15:58:34;37.17;;;18.63;;
16063;SDS011;8136;53.172;8.256;2023-12-07T16:01:04;78.80;;;18.17;;
16063;SDS011;8136;53.172;8.256;2023-12-07T16:03:32;40.73;;;18.90;;
16063;SDS011;8136;53.172;8.256;2023-12-07T16:06:01;45.03;;;17.93;;
16063;SDS011;8136;53.172;8.256;2023-12-07T16:08:29;39.43;;;19.13;;
16063;SDS011;8136;53.172;8.256;2023-12-07T16:10:56;33.97;;;17.80;;